sensor_id;sensor_type;location;lat;lon;timestamp;pressure;altitude;pressure_sealevel;temperature;humidity
41636;BME280;27623;51.966;4.602;2023-04-07T00:02:17;64114.56;;;9.43;100.00
41636;BME280;27623;51.966;4.602;2023-04-07T00:04:43;64124.75;;;9.43;100.00
41636;BME280;27623;51.966;4.602;2023-04-07T00:07:08;64091.88;;;9.39;100.00
41636;BME280;27623;51.966;4.602;2023-04-07T00:09:33;64142.91;;;9.41;100.00
41636;BME280;27623;51.966;4.602;2023-04-07T00:12:01;64087.50;;;9.42;100.00
41636;BME280;27623;51.966;4.602;2023-04-07T00:14:29;64117.66;;;9.37;100.00
41636;BME280;27623;51.966;4.602;2023-04-07T00:16:54;64088.44;;;9.40;100.00
41636;BME280;27623;51.966;4.602;2023-04-07T00:19:22;64088.97;;;9.41;100.00
41636;BME280;27623;51.966;4.602;2023-04-07T00:21:48;64106.38;;;9.50;100.00
41636;BME280;27623;51.966;4.602;2023-04-07T00:24:13;64082.78;;;9.47;100.00
41636;BME280;27623;51.966;4.602;2023-04-07T00:26:38;64087.13;;;9.51;100.00
41636;BME280;27623;51.966;4.602;2023-04-07T00:29:04;64099.69;;;9.41;100.00
41636;BME280;27623;51.966;4.602;2023-04-07T00:31:29;64090.59;;;9.42;100.00
41636;BME280;27623;51.966;4.602;2023-04-07T00:33:54;64060.09;;;9.42;100.00
41636;BME280;27623;51.966;4.602;2023-04-07T00:36:21;64103.31;;;9.42;100.00
41636;BME280;27623;51.966;4.602;2023-04-07T00:38:47;64109.84;;;9.48;100.00
41636;BME280;27623;51.966;4.602;2023-04-07T00:41:12;64080.44;;;9.42;100.00
41636;BME280;27623;51.966;4.602;2023-04-07T00:43:38;64091.69;;;9.43;100.00
41636;BME280;27623;51.966;4.602;2023-04-07T00:49:26;64092.59;;;9.42;100.00
41636;BME280;27623;51.966;4.602;2023-04-07T00:51:57;64118.22;;;9.44;100.00
41636;BME280;27623;51.966;4.602;2023-04-07T00:54:23;64132.72;;;9.48;100.00
41636;BME280;27623;51.966;4.602;2023-04-07T00:56:49;64076.63;;;9.39;100.00
41636;BME280;27623;51.966;4.602;2023-04-07T00:59:15;64108.22;;;9.40;100.00
41636;BME280;27623;51.966;4.602;2023-04-07T01:01:45;64098.63;;;9.33;100.00
41636;BME280;27623;51.966;4.602;2023-04-07T01:04:42;64089.56;;;9.20;100.00
41636;BME280;27623;51.966;4.602;2023-04-07T01:07:15;64108.81;;;9.33;100.00
41636;BME280;27623;51.966;4.602;2023-04-07T01:09:48;64052.00;;;9.13;100.00
41636;BME280;27623;51.966;4.602;2023-04-07T01:12:35;64060.19;;;9.07;100.00
41636;BME280;27623;51.966;4.602;2023-04-07T01:15:09;64071.09;;;9.10;100.00
41636;BME280;27623;51.966;4.602;2023-04-07T01:17:39;64056.38;;;9.03;100.00
41636;BME280;27623;51.966;4.602;2023-04-07T01:20:11;64055.31;;;9.02;100.00
41636;BME280;27623;51.966;4.602;2023-04-07T01:22:42;64051.50;;;8.99;100.00
41636;BME280;27623;51.966;4.602;2023-04-07T01:28:22;64031.56;;;8.89;100.00
41636;BME280;27623;51.966;4.602;2023-04-07T01:30:57;64022.69;;;8.79;100.00
41636;BME280;27623;51.966;4.602;2023-04-07T01:33:25;64056.25;;;8.93;100.00
41636;BME280;27623;51.966;4.602;2023-04-07T01:35:55;64053.13;;;9.00;100.00
41636;BME280;27623;51.966;4.602;2023-04-07T01:38:24;64024.81;;;8.95;100.00
41636;BME280;27623;51.966;4.602;2023-04-07T01:40:51;64005.44;;;8.93;100.00
41636;BME280;27623;51.966;4.602;2023-04-07T01:43:17;64044.28;;;8.82;100.00
41636;BME280;27623;51.966;4.602;2023-04-07T01:45:43;64009.38;;;9.00;100.00
41636;BME280;27623;51.966;4.602;2023-04-07T01:48:09;64047.00;;;8.92;100.00
41636;BME280;27623;51.966;4.602;2023-04-07T01:50:37;64007.94;;;9.01;100.00
41636;BME280;27623;51.966;4.602;2023-04-07T01:53:03;64013.75;;;8.96;100.00
41636;BME280;27623;51.966;4.602;2023-04-07T01:55:29;64028.84;;;8.87;100.00
41636;BME280;27623;51.966;4.602;2023-04-07T01:57:55;64021.22;;;8.87;100.00
41636;BME280;27623;51.966;4.602;2023-04-07T02:00:21;64027.91;;;9.03;100.00
41636;BME280;27623;51.966;4.602;2023-04-07T02:02:48;64047.19;;;8.87;100.00
41636;BME280;27623;51.966;4.602;2023-04-07T02:05:18;64059.53;;;8.82;100.00
41636;BME280;27623;51.966;4.602;2023-04-07T02:10:15;64012.16;;;8.81;100.00
41636;BME280;27623;51.966;4.602;2023-04-07T02:12:43;64020.50;;;8.84;100.00
41636;BME280;27623;51.966;4.602;2023-04-07T02:15:13;64037.56;;;8.88;100.00
41636;BME280;27623;51.966;4.602;2023-04-07T02:17:42;64043.19;;;8.81;100.00
41636;BME280;27623;51.966;4.602;2023-04-07T02:20:10;64013.25;;;8.89;100.00
41636;BME280;27623;51.966;4.602;2023-04-07T02:22:37;64044.81;;;8.90;100.00
41636;BME280;27623;51.966;4.602;2023-04-07T02:25:30;64005.81;;;8.77;100.00
41636;BME280;27623;51.966;4.602;2023-04-07T02:27:56;64009.81;;;8.76;100.00
41636;BME280;27623;51.966;4.602;2023-04-07T02:30:22;64006.19;;;8.75;100.00
41636;BME280;27623;51.966;4.602;2023-04-07T02:32:48;64010.34;;;8.77;100.00
41636;BME280;27623;51.966;4.602;2023-04-07T02:35:14;64036.28;;;8.84;100.00
41636;BME280;27623;51.966;4.602;2023-04-07T02:37:41;64028.66;;;8.84;100.00
41636;BME280;27623;51.966;4.602;2023-04-07T02:40:09;64034.84;;;8.85;100.00
41636;BME280;27623;51.966;4.602;2023-04-07T02:42:35;64025.22;;;8.86;100.00
41636;BME280;27623;51.966;4.602;2023-04-07T02:45:01;64056.59;;;8.91;100.00
41636;BME280;27623;51.966;4.602;2023-04-07T02:47:27;64027.75;;;8.93;100.00
41636;BME280;27623;51.966;4.602;2023-04-07T02:49:52;64048.44;;;8.84;100.00
41636;BME280;27623;51.966;4.602;2023-04-07T02:52:18;64033.56;;;8.82;100.00
41636;BME280;27623;51.966;4.602;2023-04-07T02:54:46;64054.44;;;8.82;100.00
41636;BME280;27623;51.966;4.602;2023-04-07T02:57:11;64054.44;;;8.82;100.00
41636;BME280;27623;51.966;4.602;2023-04-07T02:59:38;64036.47;;;8.87;100.00
41636;BME280;27623;51.966;4.602;2023-04-07T03:02:06;64037.94;;;8.86;100.00
41636;BME280;27623;51.966;4.602;2023-04-07T03:04:31;64006.88;;;8.92;100.00
41636;BME280;27623;51.966;4.602;2023-04-07T03:06:57;64039.72;;;8.90;100.00
41636;BME280;27623;51.966;4.602;2023-04-07T03:09:22;64067.69;;;8.90;100.00
41636;BME280;27623;51.966;4.602;2023-04-07T03:11:48;64038.66;;;8.89;100.00
41636;BME280;27623;51.966;4.602;2023-04-07T03:14:13;64015.22;;;8.88;100.00
41636;BME280;27623;51.966;4.602;2023-04-07T03:16:39;64049.91;;;8.90;100.00
41636;BME280;27623;51.966;4.602;2023-04-07T03:19:04;64046.84;;;8.75;100.00
41636;BME280;27623;51.966;4.602;2023-04-07T03:21:30;64015.25;;;8.81;100.00
41636;BME280;27623;51.966;4.602;2023-04-07T03:23:56;64061.34;;;8.86;100.00
41636;BME280;27623;51.966;4.602;2023-04-07T03:26:24;64057.53;;;8.90;100.00
41636;BME280;27623;51.966;4.602;2023-04-07T03:28:49;64043.69;;;8.96;100.00
41636;BME280;27623;51.966;4.602;2023-04-07T03:31:17;64065.47;;;9.02;100.00
41636;BME280;27623;51.966;4.602;2023-04-07T03:33:45;64019.19;;;9.02;100.00
41636;BME280;27623;51.966;4.602;2023-04-07T03:36:10;64022.97;;;9.05;100.00
41636;BME280;27623;51.966;4.602;2023-04-07T03:38:36;64062.94;;;9.02;100.00
41636;BME280;27623;51.966;4.602;2023-04-07T03:41:03;64053.31;;;9.03;100.00
41636;BME280;27623;51.966;4.602;2023-04-07T03:43:29;64048.41;;;9.05;100.00
41636;BME280;27623;51.966;4.602;2023-04-07T03:45:54;64072.19;;;8.96;100.00
41636;BME280;27623;51.966;4.602;2023-04-07T03:48:20;64047.13;;;9.02;100.00
41636;BME280;27623;51.966;4.602;2023-04-07T03:50:45;64040.06;;;9.02;100.00
41636;BME280;27623;51.966;4.602;2023-04-07T03:53:14;64036.44;;;9.01;100.00
41636;BME280;27623;51.966;4.602;2023-04-07T03:55:41;64077.25;;;9.04;100.00
41636;BME280;27623;51.966;4.602;2023-04-07T03:58:07;64045.69;;;9.03;100.00
41636;BME280;27623;51.966;4.602;2023-04-07T04:00:32;64037.88;;;9.07;100.00
41636;BME280;27623;51.966;4.602;2023-04-07T04:02:59;64082.16;;;9.08;100.00
41636;BME280;27623;51.966;4.602;2023-04-07T04:05:24;64074.00;;;9.08;100.00
41636;BME280;27623;51.966;4.602;2023-04-07T04:07:50;64058.00;;;9.12;100.00
41636;BME280;27623;51.966;4.602;2023-04-07T04:10:17;64070.50;;;9.16;100.00
41636;BME280;27623;51.966;4.602;2023-04-07T04:12:43;64073.81;;;9.12;100.00
41636;BME280;27623;51.966;4.602;2023-04-07T04:15:09;64041.47;;;9.15;100.00
41636;BME280;27623;51.966;4.602;2023-04-07T04:17:34;64069.25;;;9.13;100.00
41636;BME280;27623;51.966;4.602;2023-04-07T04:20:02;64056.56;;;9.13;100.00
41636;BME280;27623;51.966;4.602;2023-04-07T04:22:30;64091.03;;;9.19;100.00
41636;BME280;27623;51.966;4.602;2023-04-07T04:24:56;64084.34;;;9.10;100.00
41636;BME280;27623;51.966;4.602;2023-04-07T04:27:21;64105.00;;;9.22;100.00
41636;BME280;27623;51.966;4.602;2023-04-07T04:29:47;64096.81;;;9.22;100.00
41636;BME280;27623;51.966;4.602;2023-04-07T04:32:13;64074.31;;;9.20;100.00
41636;BME280;27623;51.966;4.602;2023-04-07T04:34:38;64055.44;;;9.19;100.00
41636;BME280;27623;51.966;4.602;2023-04-07T04:37:06;64048.34;;;9.19;100.00
41636;BME280;27623;51.966;4.602;2023-04-07T04:39:31;64092.31;;;9.15;100.00
41636;BME280;27623;51.966;4.602;2023-04-07T04:41:56;64087.38;;;9.25;100.00
41636;BME280;27623;51.966;4.602;2023-04-07T04:44:22;64085.56;;;9.21;100.00
41636;BME280;27623;51.966;4.602;2023-04-07T04:46:50;64105.91;;;9.21;100.00
41636;BME280;27623;51.966;4.602;2023-04-07T04:49:15;64097.75;;;9.20;100.00
41636;BME280;27623;51.966;4.602;2023-04-07T04:51:43;64089.38;;;9.17;100.00
41636;BME280;27623;51.966;4.602;2023-04-07T04:54:08;64047.06;;;9.23;100.00
41636;BME280;27623;51.966;4.602;2023-04-07T04:56:33;64051.06;;;9.22;100.00
41636;BME280;27623;51.966;4.602;2023-04-07T04:58:59;64045.81;;;9.19;100.00
41636;BME280;27623;51.966;4.602;2023-04-07T05:01:24;64063.59;;;9.19;100.00
41636;BME280;27623;51.966;4.602;2023-04-07T05:03:50;64061.97;;;9.18;100.00
41636;BME280;27623;51.966;4.602;2023-04-07T05:06:15;64056.34;;;9.17;100.00
41636;BME280;27623;51.966;4.602;2023-04-07T05:08:41;64075.78;;;9.19;100.00
41636;BME280;27623;51.966;4.602;2023-04-07T05:11:06;64067.59;;;9.18;100.00
41636;BME280;27623;51.966;4.602;2023-04-07T05:13:32;64089.94;;;9.18;100.00
41636;BME280;27623;51.966;4.602;2023-04-07T05:15:57;64064.50;;;9.18;100.00
41636;BME280;27623;51.966;4.602;2023-04-07T05:18:22;64098.09;;;9.18;100.00
41636;BME280;27623;51.966;4.602;2023-04-07T05:20:51;64081.75;;;9.17;100.00
41636;BME280;27623;51.966;4.602;2023-04-07T05:23:19;64093.56;;;9.19;100.00
41636;BME280;27623;51.966;4.602;2023-04-07T05:25:44;64092.09;;;9.20;100.00
41636;BME280;27623;51.966;4.602;2023-04-07T05:28:10;64077.59;;;9.16;100.00
41636;BME280;27623;51.966;4.602;2023-04-07T05:30:35;64083.41;;;9.19;100.00
41636;BME280;27623;51.966;4.602;2023-04-07T05:33:01;64063.97;;;9.17;100.00
41636;BME280;27623;51.966;4.602;2023-04-07T05:35:26;64089.19;;;9.22;100.00
41636;BME280;27623;51.966;4.602;2023-04-07T05:37:51;64080.84;;;9.19;100.00
41636;BME280;27623;51.966;4.602;2023-04-07T05:40:17;64088.84;;;9.24;100.00
41636;BME280;27623;51.966;4.602;2023-04-07T05:42:42;64081.03;;;9.28;100.00
41636;BME280;27623;51.966;4.602;2023-04-07T05:45:08;64075.75;;;9.26;100.00
41636;BME280;27623;51.966;4.602;2023-04-07T05:47:34;64068.84;;;9.29;100.00
41636;BME280;27623;51.966;4.602;2023-04-07T05:50:00;64070.69;;;9.26;100.00
41636;BME280;27623;51.966;4.602;2023-04-07T05:52:25;64089.38;;;9.24;100.00
41636;BME280;27623;51.966;4.602;2023-04-07T05:54:51;64075.41;;;9.21;100.00
41636;BME280;27623;51.966;4.602;2023-04-07T05:57:16;64091.91;;;9.24;100.00
41636;BME280;27623;51.966;4.602;2023-04-07T05:59:43;64076.84;;;9.27;100.00
41636;BME280;27623;51.966;4.602;2023-04-07T06:02:09;64071.94;;;9.22;100.00
41636;BME280;27623;51.966;4.602;2023-04-07T06:04:35;64059.41;;;9.25;100.00
41636;BME280;27623;51.966;4.602;2023-04-07T06:07:01;64073.22;;;9.26;100.00
41636;BME280;27623;51.966;4.602;2023-04-07T06:09:27;64113.16;;;9.30;100.00
41636;BME280;27623;51.966;4.602;2023-04-07T06:11:52;64087.00;;;9.34;100.00
41636;BME280;27623;51.966;4.602;2023-04-07T06:14:17;64100.09;;;9.32;100.00
41636;BME280;27623;51.966;4.602;2023-04-07T06:16:45;64090.81;;;9.30;100.00
41636;BME280;27623;51.966;4.602;2023-04-07T06:19:10;64087.38;;;9.32;100.00
41636;BME280;27623;51.966;4.602;2023-04-07T06:21:36;64115.13;;;9.37;100.00
41636;BME280;27623;51.966;4.602;2023-04-07T06:24:01;64110.22;;;9.39;100.00
41636;BME280;27623;51.966;4.602;2023-04-07T06:26:27;64103.31;;;9.42;100.00
41636;BME280;27623;51.966;4.602;2023-04-07T06:28:52;64098.78;;;9.43;100.00
41636;BME280;27623;51.966;4.602;2023-04-07T06:31:18;64120.94;;;9.47;100.00
41636;BME280;27623;51.966;4.602;2023-04-07T06:33:44;64092.03;;;9.48;100.00
41636;BME280;27623;51.966;4.602;2023-04-07T06:36:10;64076.78;;;9.48;100.00
41636;BME280;27623;51.966;4.602;2023-04-07T06:38:36;64122.38;;;9.53;100.00
41636;BME280;27623;51.966;4.602;2023-04-07T06:41:02;64121.63;;;9.57;100.00
41636;BME280;27623;51.966;4.602;2023-04-07T06:43:28;64139.97;;;9.57;100.00
41636;BME280;27623;51.966;4.602;2023-04-07T06:45:54;64102.53;;;9.60;100.00
41636;BME280;27623;51.966;4.602;2023-04-07T06:48:20;64086.19;;;9.59;100.00
41636;BME280;27623;51.966;4.602;2023-04-07T06:50:48;64098.72;;;9.64;100.00
41636;BME280;27623;51.966;4.602;2023-04-07T06:53:14;64119.25;;;9.59;100.00
41636;BME280;27623;51.966;4.602;2023-04-07T06:55:39;64123.94;;;9.69;100.00
41636;BME280;27623;51.966;4.602;2023-04-07T06:58:05;64118.88;;;9.69;100.00
41636;BME280;27623;51.966;4.602;2023-04-07T07:00:30;64121.03;;;9.71;100.00
41636;BME280;27623;51.966;4.602;2023-04-07T07:02:56;64131.03;;;9.68;100.00
41636;BME280;27623;51.966;4.602;2023-04-07T07:05:21;64122.69;;;9.72;100.00
41636;BME280;27623;51.966;4.602;2023-04-07T07:07:48;64149.22;;;9.73;100.00
41636;BME280;27623;51.966;4.602;2023-04-07T07:10:13;64134.66;;;9.76;100.00
41636;BME280;27623;51.966;4.602;2023-04-07T07:12:38;64137.56;;;9.74;100.00
41636;BME280;27623;51.966;4.602;2023-04-07T07:15:04;64157.94;;;9.74;100.00
41636;BME280;27623;51.966;4.602;2023-04-07T07:17:30;64143.19;;;9.75;100.00
41636;BME280;27623;51.966;4.602;2023-04-07T07:19:55;64139.75;;;9.76;100.00
41636;BME280;27623;51.966;4.602;2023-04-07T07:22:21;64129.19;;;9.78;100.00
41636;BME280;27623;51.966;4.602;2023-04-07T07:24:46;64135.72;;;9.77;100.00
41636;BME280;27623;51.966;4.602;2023-04-07T07:27:11;64124.47;;;9.76;100.00
41636;BME280;27623;51.966;4.602;2023-04-07T07:29:37;64139.19;;;9.76;100.00
41636;BME280;27623;51.966;4.602;2023-04-07T07:32:04;64120.13;;;9.72;100.00
41636;BME280;27623;51.966;4.602;2023-04-07T07:34:30;64132.31;;;9.72;100.00
41636;BME280;27623;51.966;4.602;2023-04-07T07:36:55;64162.66;;;9.76;100.00
41636;BME280;27623;51.966;4.602;2023-04-07T07:39:21;64123.41;;;9.75;100.00
41636;BME280;27623;51.966;4.602;2023-04-07T07:41:49;64157.72;;;9.79;100.00
41636;BME280;27623;51.966;4.602;2023-04-07T07:44:15;64115.72;;;9.82;100.00
41636;BME280;27623;51.966;4.602;2023-04-07T07:46:40;64143.16;;;9.82;100.00
41636;BME280;27623;51.966;4.602;2023-04-07T07:49:08;64168.44;;;9.86;100.00
41636;BME280;27623;51.966;4.602;2023-04-07T07:51:34;64147.53;;;9.86;100.00
41636;BME280;27623;51.966;4.602;2023-04-07T07:53:59;64162.97;;;9.88;100.00
41636;BME280;27623;51.966;4.602;2023-04-07T07:56:24;64158.97;;;9.89;100.00
41636;BME280;27623;51.966;4.602;2023-04-07T07:58:53;64157.50;;;9.90;100.00
41636;BME280;27623;51.966;4.602;2023-04-07T08:01:18;64166.06;;;9.89;100.00
41636;BME280;27623;51.966;4.602;2023-04-07T08:03:43;64194.97;;;9.94;100.00
41636;BME280;27623;51.966;4.602;2023-04-07T08:06:12;64180.41;;;9.90;100.00
41636;BME280;27623;51.966;4.602;2023-04-07T08:08:37;64164.78;;;9.85;100.00
41636;BME280;27623;51.966;4.602;2023-04-07T08:11:03;64153.50;;;9.91;100.00
41636;BME280;27623;51.966;4.602;2023-04-07T08:13:31;64147.69;;;9.95;100.00
41636;BME280;27623;51.966;4.602;2023-04-07T08:15:56;64160.91;;;10.03;100.00
41636;BME280;27623;51.966;4.602;2023-04-07T08:18:22;64172.94;;;10.00;100.00
41636;BME280;27623;51.966;4.602;2023-04-07T08:20:47;64143.84;;;9.99;100.00
41636;BME280;27623;51.966;4.602;2023-04-07T08:23:13;64162.03;;;9.97;100.00
41636;BME280;27623;51.966;4.602;2023-04-07T08:25:38;64179.81;;;10.04;100.00
41636;BME280;27623;51.966;4.602;2023-04-07T08:28:04;64172.16;;;10.11;100.00
41636;BME280;27623;51.966;4.602;2023-04-07T08:30:33;64203.97;;;10.22;100.00
41636;BME280;27623;51.966;4.602;2023-04-07T08:32:58;64203.78;;;10.26;100.00
41636;BME280;27623;51.966;4.602;2023-04-07T08:35:24;64205.25;;;10.25;100.00
41636;BME280;27623;51.966;4.602;2023-04-07T08:37:54;64220.50;;;10.32;100.00
41636;BME280;27623;51.966;4.602;2023-04-07T08:40:20;64209.03;;;10.36;100.00
41636;BME280;27623;51.966;4.602;2023-04-07T08:42:48;64205.22;;;10.32;100.00
41636;BME280;27623;51.966;4.602;2023-04-07T08:45:15;64207.56;;;10.37;100.00
41636;BME280;27623;51.966;4.602;2023-04-07T08:47:41;64221.41;;;10.38;100.00
41636;BME280;27623;51.966;4.602;2023-04-07T08:50:09;64226.16;;;10.33;100.00
41636;BME280;27623;51.966;4.602;2023-04-07T08:55:11;64224.31;;;10.36;100.00
41636;BME280;27623;51.966;4.602;2023-04-07T08:57:40;64232.31;;;10.34;100.00
41636;BME280;27623;51.966;4.602;2023-04-07T09:00:06;64207.22;;;10.32;100.00
41636;BME280;27623;51.966;4.602;2023-04-07T09:02:33;64217.97;;;10.25;100.00
41636;BME280;27623;51.966;4.602;2023-04-07T09:05:00;64206.88;;;10.27;100.00
41636;BME280;27623;51.966;4.602;2023-04-07T09:07:27;64215.41;;;10.32;100.00
41636;BME280;27623;51.966;4.602;2023-04-07T09:09:54;64195.94;;;10.31;100.00
41636;BME280;27623;51.966;4.602;2023-04-07T09:12:19;64214.31;;;10.31;100.00
41636;BME280;27623;51.966;4.602;2023-04-07T09:14:47;64220.50;;;10.32;100.00
41636;BME280;27623;51.966;4.602;2023-04-07T09:17:12;64211.06;;;10.28;100.00
41636;BME280;27623;51.966;4.602;2023-04-07T09:19:38;64165.22;;;10.28;100.00
41636;BME280;27623;51.966;4.602;2023-04-07T09:22:03;64172.28;;;10.35;100.00
41636;BME280;27623;51.966;4.602;2023-04-07T09:24:29;64205.94;;;10.36;100.00
41636;BME280;27623;51.966;4.602;2023-04-07T09:27:17;64238.47;;;10.42;100.00
41636;BME280;27623;51.966;4.602;2023-04-07T09:29:44;64209.91;;;10.49;100.00
41636;BME280;27623;51.966;4.602;2023-04-07T09:32:10;64248.47;;;10.54;100.00
41636;BME280;27623;51.966;4.602;2023-04-07T09:34:39;64229.88;;;10.58;100.00
41636;BME280;27623;51.966;4.602;2023-04-07T09:37:07;64270.97;;;10.70;100.00
41636;BME280;27623;51.966;4.602;2023-04-07T09:39:50;64238.94;;;10.71;100.00
41636;BME280;27623;51.966;4.602;2023-04-07T09:42:15;64220.53;;;10.71;100.00
41636;BME280;27623;51.966;4.602;2023-04-07T09:44:41;64257.69;;;10.62;100.00
41636;BME280;27623;51.966;4.602;2023-04-07T09:47:06;64251.31;;;10.66;100.00
41636;BME280;27623;51.966;4.602;2023-04-07T09:49:32;64262.59;;;10.67;100.00
41636;BME280;27623;51.966;4.602;2023-04-07T09:52:02;64256.59;;;10.61;100.00
41636;BME280;27623;51.966;4.602;2023-04-07T09:54:40;64248.97;;;10.61;100.00
41636;BME280;27623;51.966;4.602;2023-04-07T09:57:07;64225.13;;;10.63;100.00
41636;BME280;27623;51.966;4.602;2023-04-07T09:59:35;64240.22;;;10.67;100.00
41636;BME280;27623;51.966;4.602;2023-04-07T10:02:01;64283.53;;;10.67;100.00
41636;BME280;27623;51.966;4.602;2023-04-07T10:04:27;64255.47;;;10.75;99.83
41636;BME280;27623;51.966;4.602;2023-04-07T10:06:53;64254.03;;;10.76;98.68
41636;BME280;27623;51.966;4.602;2023-04-07T10:09:22;64239.59;;;10.81;99.58
41636;BME280;27623;51.966;4.602;2023-04-07T10:11:50;64270.91;;;10.84;99.52
41636;BME280;27623;51.966;4.602;2023-04-07T10:14:17;64270.59;;;10.79;98.73
41636;BME280;27623;51.966;4.602;2023-04-07T10:16:46;64303.72;;;10.79;98.85
41636;BME280;27623;51.966;4.602;2023-04-07T10:19:12;64262.34;;;10.86;98.55
41636;BME280;27623;51.966;4.602;2023-04-07T10:21:40;64292.91;;;10.93;99.01
41636;BME280;27623;51.966;4.602;2023-04-07T10:26:36;64275.69;;;10.79;98.41
41636;BME280;27623;51.966;4.602;2023-04-07T10:29:09;64244.00;;;10.78;98.60
41636;BME280;27623;51.966;4.602;2023-04-07T10:31:36;64288.78;;;10.77;100.00
41636;BME280;27623;51.966;4.602;2023-04-07T10:34:02;64262.38;;;10.79;100.00
41636;BME280;27623;51.966;4.602;2023-04-07T10:36:28;64261.84;;;10.78;99.42
41636;BME280;27623;51.966;4.602;2023-04-07T10:41:40;64295.13;;;10.88;99.15
41636;BME280;27623;51.966;4.602;2023-04-07T10:47:07;64295.47;;;10.93;99.66
41636;BME280;27623;51.966;4.602;2023-04-07T10:49:33;64284.94;;;10.88;99.74
41636;BME280;27623;51.966;4.602;2023-04-07T10:54:37;64291.47;;;10.94;100.00
41636;BME280;27623;51.966;4.602;2023-04-07T10:57:07;64318.41;;;11.00;100.00
41636;BME280;27623;51.966;4.602;2023-04-07T10:59:37;64274.53;;;10.92;100.00
41636;BME280;27623;51.966;4.602;2023-04-07T11:04:40;64255.66;;;10.77;100.00
41636;BME280;27623;51.966;4.602;2023-04-07T11:07:07;64282.56;;;10.83;100.00
41636;BME280;27623;51.966;4.602;2023-04-07T11:09:36;64274.00;;;10.92;100.00
41636;BME280;27623;51.966;4.602;2023-04-07T11:12:01;64280.16;;;11.00;100.00
41636;BME280;27623;51.966;4.602;2023-04-07T11:14:28;64293.44;;;11.00;100.00
41636;BME280;27623;51.966;4.602;2023-04-07T11:16:54;64305.31;;;10.95;100.00
41636;BME280;27623;51.966;4.602;2023-04-07T11:19:20;64282.00;;;10.97;100.00
41636;BME280;27623;51.966;4.602;2023-04-07T11:21:45;64285.63;;;10.98;100.00
41636;BME280;27623;51.966;4.602;2023-04-07T11:24:33;64279.06;;;10.99;100.00
41636;BME280;27623;51.966;4.602;2023-04-07T11:26:59;64292.88;;;11.07;100.00
41636;BME280;27623;51.966;4.602;2023-04-07T11:29:30;64296.88;;;11.06;100.00
41636;BME280;27623;51.966;4.602;2023-04-07T11:31:57;64265.72;;;11.06;100.00
41636;BME280;27623;51.966;4.602;2023-04-07T11:34:28;64303.59;;;11.08;100.00
41636;BME280;27623;51.966;4.602;2023-04-07T11:36:57;64323.47;;;11.07;100.00
41636;BME280;27623;51.966;4.602;2023-04-07T11:39:26;64278.31;;;11.03;100.00
41636;BME280;27623;51.966;4.602;2023-04-07T11:41:52;64316.00;;;11.02;100.00
41636;BME280;27623;51.966;4.602;2023-04-07T11:44:18;64270.88;;;10.98;100.00
41636;BME280;27623;51.966;4.602;2023-04-07T11:49:18;64257.94;;;10.96;99.92
41636;BME280;27623;51.966;4.602;2023-04-07T11:51:46;64274.84;;;11.05;98.33
41636;BME280;27623;51.966;4.602;2023-04-07T11:54:12;64318.94;;;11.00;98.80
41636;BME280;27623;51.966;4.602;2023-04-07T11:56:44;64288.50;;;11.03;98.81
41636;BME280;27623;51.966;4.602;2023-04-07T11:59:20;64285.94;;;11.10;99.09
41636;BME280;27623;51.966;4.602;2023-04-07T12:01:47;64274.72;;;10.95;98.15
41636;BME280;27623;51.966;4.602;2023-04-07T12:04:13;64296.56;;;10.94;97.69
41636;BME280;27623;51.966;4.602;2023-04-07T12:06:40;64251.03;;;10.92;98.74
41636;BME280;27623;51.966;4.602;2023-04-07T12:09:08;64288.91;;;10.94;99.66
41636;BME280;27623;51.966;4.602;2023-04-07T12:11:36;64247.38;;;10.98;98.66
41636;BME280;27623;51.966;4.602;2023-04-07T12:14:04;64276.72;;;10.94;98.54
41636;BME280;27623;51.966;4.602;2023-04-07T12:16:30;64266.34;;;10.92;98.73
41636;BME280;27623;51.966;4.602;2023-04-07T12:18:56;64322.59;;;10.94;97.82
41636;BME280;27623;51.966;4.602;2023-04-07T12:21:22;64288.91;;;10.94;99.20
41636;BME280;27623;51.966;4.602;2023-04-07T12:23:48;64306.75;;;11.01;97.09
41636;BME280;27623;51.966;4.602;2023-04-07T12:26:13;64324.41;;;10.98;97.45
41636;BME280;27623;51.966;4.602;2023-04-07T12:28:39;64314.91;;;11.01;96.45
41636;BME280;27623;51.966;4.602;2023-04-07T12:31:04;64291.78;;;11.06;96.29
41636;BME280;27623;51.966;4.602;2023-04-07T12:33:30;64267.91;;;11.08;95.21
41636;BME280;27623;51.966;4.602;2023-04-07T12:35:56;64305.78;;;11.10;95.45
41636;BME280;27623;51.966;4.602;2023-04-07T12:38:22;64328.72;;;11.17;95.42
41636;BME280;27623;51.966;4.602;2023-04-07T12:40:47;64273.00;;;11.15;94.68
41636;BME280;27623;51.966;4.602;2023-04-07T12:43:15;64295.41;;;11.14;93.99
41636;BME280;27623;51.966;4.602;2023-04-07T12:45:41;64337.09;;;11.20;94.16
41636;BME280;27623;51.966;4.602;2023-04-07T12:48:06;64306.66;;;11.22;93.43
41636;BME280;27623;51.966;4.602;2023-04-07T12:50:35;64315.78;;;11.21;93.67
41636;BME280;27623;51.966;4.602;2023-04-07T12:53:00;64335.84;;;11.16;93.89
41636;BME280;27623;51.966;4.602;2023-04-07T12:55:31;64300.69;;;11.10;95.07
41636;BME280;27623;51.966;4.602;2023-04-07T12:57:58;64300.88;;;11.05;96.56
41636;BME280;27623;51.966;4.602;2023-04-07T13:00:24;64304.13;;;11.15;96.23
41636;BME280;27623;51.966;4.602;2023-04-07T13:02:52;64326.53;;;11.15;96.16
41636;BME280;27623;51.966;4.602;2023-04-07T13:05:19;64291.34;;;11.22;94.82
41636;BME280;27623;51.966;4.602;2023-04-07T13:07:45;64341.44;;;11.24;94.91
41636;BME280;27623;51.966;4.602;2023-04-07T13:10:13;64314.84;;;11.23;94.15
41636;BME280;27623;51.966;4.602;2023-04-07T13:12:38;64334.53;;;11.20;94.78
41636;BME280;27623;51.966;4.602;2023-04-07T13:15:05;64322.88;;;11.21;95.37
41636;BME280;27623;51.966;4.602;2023-04-07T13:17:31;64309.03;;;11.20;94.40
41636;BME280;27623;51.966;4.602;2023-04-07T13:19:56;64342.91;;;11.23;93.20
41636;BME280;27623;51.966;4.602;2023-04-07T13:22:26;64327.78;;;11.25;93.16
41636;BME280;27623;51.966;4.602;2023-04-07T13:24:55;64307.94;;;11.19;93.63